sensor_id;sensor_type;location;lat;lon;timestamp;pressure;altitude;pressure_sealevel;temperature;humidity
17521;BME280;8878;-33.370;-70.552;2023-07-28T00:01:38;92405.00;;;12.20;66.75
17521;BME280;8878;-33.370;-70.552;2023-07-28T00:04:07;92398.63;;;12.26;66.72
17521;BME280;8878;-33.370;-70.552;2023-07-28T00:06:37;92399.94;;;12.33;66.41
17521;BME280;8878;-33.370;-70.552;2023-07-28T00:09:08;92396.50;;;12.33;67.03
17521;BME280;8878;-33.370;-70.552;2023-07-28T00:11:39;92400.50;;;12.25;67.22
17521;BME280;8878;-33.370;-70.552;2023-07-28T00:14:08;92397.81;;;12.30;66.04
17521;BME280;8878;-33.370;-70.552;2023-07-28T00:16:38;92402.56;;;12.38;66.88
17521;BME280;8878;-33.370;-70.552;2023-07-28T00:19:07;92393.59;;;12.34;67.48
17521;BME280;8878;-33.370;-70.552;2023-07-28T00:21:37;92400.50;;;12.25;67.51
17521;BME280;8878;-33.370;-70.552;2023-07-28T00:24:08;92398.91;;;12.24;68.07
17521;BME280;8878;-33.370;-70.552;2023-07-28T00:26:39;92407.34;;;12.31;67.58
17521;BME280;8878;-33.370;-70.552;2023-07-28T00:29:08;92408.69;;;12.29;67.82
17521;BME280;8878;-33.370;-70.552;2023-07-28T00:31:38;92401.53;;;12.24;68.68
17521;BME280;8878;-33.370;-70.552;2023-07-28T00:34:07;92409.22;;;12.15;69.17
17521;BME280;8878;-33.370;-70.552;2023-07-28T00:36:36;92414.81;;;12.04;67.69
17521;BME280;8878;-33.370;-70.552;2023-07-28T00:39:08;92411.63;;;12.12;65.03
17521;BME280;8878;-33.370;-70.552;2023-07-28T00:41:37;92423.47;;;12.40;62.70
17521;BME280;8878;-33.370;-70.552;2023-07-28T00:44:07;92416.78;;;12.52;62.06
17521;BME280;8878;-33.370;-70.552;2023-07-28T00:46:36;92420.50;;;12.51;61.69
17521;BME280;8878;-33.370;-70.552;2023-07-28T00:49:06;92423.41;;;12.55;62.20
17521;BME280;8878;-33.370;-70.552;2023-07-28T00:51:36;92431.84;;;12.62;64.04
17521;BME280;8878;-33.370;-70.552;2023-07-28T00:54:08;92434.88;;;12.35;67.09
17521;BME280;8878;-33.370;-70.552;2023-07-28T00:56:37;92435.41;;;12.22;69.14
17521;BME280;8878;-33.370;-70.552;2023-07-28T00:59:07;92426.44;;;12.13;69.23
17521;BME280;8878;-33.370;-70.552;2023-07-28T01:01:38;92420.66;;;12.06;68.88
17521;BME280;8878;-33.370;-70.552;2023-07-28T01:04:07;92418.00;;;12.01;68.46
17521;BME280;8878;-33.370;-70.552;2023-07-28T01:06:44;92425.97;;;11.86;68.44
17521;BME280;8878;-33.370;-70.552;2023-07-28T01:09:21;92432.81;;;11.71;68.55
17521;BME280;8878;-33.370;-70.552;2023-07-28T01:11:54;92424.38;;;11.64;68.87
17521;BME280;8878;-33.370;-70.552;2023-07-28T01:14:24;92418.03;;;11.70;69.19
17521;BME280;8878;-33.370;-70.552;2023-07-28T01:16:53;92416.97;;;11.76;67.92
17521;BME280;8878;-33.370;-70.552;2023-07-28T01:19:23;92420.41;;;11.57;67.56
17521;BME280;8878;-33.370;-70.552;2023-07-28T01:22:01;92425.97;;;11.50;67.64
17521;BME280;8878;-33.370;-70.552;2023-07-28T01:24:44;92427.53;;;11.56;67.42
17521;BME280;8878;-33.370;-70.552;2023-07-28T01:27:17;92435.72;;;11.65;67.24
17521;BME280;8878;-33.370;-70.552;2023-07-28T01:29:47;92425.69;;;11.62;66.98
17521;BME280;8878;-33.370;-70.552;2023-07-28T01:32:17;92438.63;;;11.63;68.56
17521;BME280;8878;-33.370;-70.552;2023-07-28T01:34:47;92429.09;;;11.52;68.59
17521;BME280;8878;-33.370;-70.552;2023-07-28T01:37:16;92432.28;;;11.54;68.82
17521;BME280;8878;-33.370;-70.552;2023-07-28T01:39:46;92429.63;;;11.59;67.90
17521;BME280;8878;-33.370;-70.552;2023-07-28T01:42:17;92431.75;;;11.52;67.56
17521;BME280;8878;-33.370;-70.552;2023-07-28T01:44:46;92436.53;;;11.50;68.01
17521;BME280;8878;-33.370;-70.552;2023-07-28T01:47:16;92441.53;;;11.52;68.87
17521;BME280;8878;-33.370;-70.552;2023-07-28T01:49:45;92444.94;;;11.37;68.84
17521;BME280;8878;-33.370;-70.552;2023-07-28T01:52:15;92436.50;;;11.35;69.03
17521;BME280;8878;-33.370;-70.552;2023-07-28T01:54:44;92426.72;;;11.15;67.92
17521;BME280;8878;-33.370;-70.552;2023-07-28T01:57:14;92428.03;;;11.08;68.07
17521;BME280;8878;-33.370;-70.552;2023-07-28T01:59:45;92435.91;;;10.97;68.35
17521;BME280;8878;-33.370;-70.552;2023-07-28T02:02:14;92434.06;;;10.98;68.89
17521;BME280;8878;-33.370;-70.552;2023-07-28T02:04:44;92430.13;;;11.01;69.18
17521;BME280;8878;-33.370;-70.552;2023-07-28T02:07:13;92426.94;;;10.98;69.34
17521;BME280;8878;-33.370;-70.552;2023-07-28T02:09:43;92430.63;;;10.97;68.90
17521;BME280;8878;-33.370;-70.552;2023-07-28T02:12:13;92431.47;;;11.08;67.62
17521;BME280;8878;-33.370;-70.552;2023-07-28T02:14:44;92438.84;;;11.11;67.55
17521;BME280;8878;-33.370;-70.552;2023-07-28T02:17:13;92432.22;;;11.09;67.91
17521;BME280;8878;-33.370;-70.552;2023-07-28T02:19:43;92441.75;;;11.05;67.75
17521;BME280;8878;-33.370;-70.552;2023-07-28T02:22:12;92443.03;;;10.92;68.16
17521;BME280;8878;-33.370;-70.552;2023-07-28T02:24:42;92441.16;;;10.82;68.55
17521;BME280;8878;-33.370;-70.552;2023-07-28T02:27:11;92453.28;;;10.83;68.50
17521;BME280;8878;-33.370;-70.552;2023-07-28T02:29:41;92456.41;;;10.70;67.95
17521;BME280;8878;-33.370;-70.552;2023-07-28T02:32:12;92448.50;;;10.75;67.97
17521;BME280;8878;-33.370;-70.552;2023-07-28T02:34:43;92454.88;;;10.84;68.58
17521;BME280;8878;-33.370;-70.552;2023-07-28T02:37:13;92459.31;;;10.69;68.66
17521;BME280;8878;-33.370;-70.552;2023-07-28T02:39:43;92451.94;;;10.71;69.37
17521;BME280;8878;-33.370;-70.552;2023-07-28T02:42:13;92450.59;;;10.73;69.78
17521;BME280;8878;-33.370;-70.552;2023-07-28T02:44:42;92453.72;;;10.55;68.71
17521;BME280;8878;-33.370;-70.552;2023-07-28T02:47:14;92450.28;;;10.49;68.55
17521;BME280;8878;-33.370;-70.552;2023-07-28T02:49:43;92457.41;;;10.54;68.19
17521;BME280;8878;-33.370;-70.552;2023-07-28T02:52:13;92467.94;;;10.54;68.23
17521;BME280;8878;-33.370;-70.552;2023-07-28T02:54:43;92464.28;;;10.60;68.33
17521;BME280;8878;-33.370;-70.552;2023-07-28T02:57:12;92477.53;;;10.70;67.96
17521;BME280;8878;-33.370;-70.552;2023-07-28T02:59:41;92483.91;;;10.79;67.88
17521;BME280;8878;-33.370;-70.552;2023-07-28T03:02:13;92488.63;;;10.72;67.98
17521;BME280;8878;-33.370;-70.552;2023-07-28T03:04:42;92493.88;;;10.67;68.91
17521;BME280;8878;-33.370;-70.552;2023-07-28T03:07:12;92496.78;;;10.66;69.58
17521;BME280;8878;-33.370;-70.552;2023-07-28T03:09:42;92483.28;;;10.62;68.65
17521;BME280;8878;-33.370;-70.552;2023-07-28T03:12:12;92487.19;;;10.44;69.09
17521;BME280;8878;-33.370;-70.552;2023-07-28T03:14:41;92491.44;;;10.50;69.03
17521;BME280;8878;-33.370;-70.552;2023-07-28T03:17:11;92491.72;;;10.59;68.39
17521;BME280;8878;-33.370;-70.552;2023-07-28T03:19:42;92489.13;;;10.69;68.71
17521;BME280;8878;-33.370;-70.552;2023-07-28T03:22:11;92495.50;;;10.78;68.69
17521;BME280;8878;-33.370;-70.552;2023-07-28T03:24:41;92498.66;;;10.80;68.06
17521;BME280;8878;-33.370;-70.552;2023-07-28T03:27:13;92501.31;;;10.80;67.31
17521;BME280;8878;-33.370;-70.552;2023-07-28T03:29:43;92497.91;;;10.85;66.76
17521;BME280;8878;-33.370;-70.552;2023-07-28T03:32:12;92491.81;;;10.79;67.35
17521;BME280;8878;-33.370;-70.552;2023-07-28T03:34:43;92510.00;;;10.71;67.46
17521;BME280;8878;-33.370;-70.552;2023-07-28T03:37:14;92505.44;;;10.61;67.94
17521;BME280;8878;-33.370;-70.552;2023-07-28T03:39:43;92506.47;;;10.55;67.80
17521;BME280;8878;-33.370;-70.552;2023-07-28T03:42:13;92507.50;;;10.49;68.68
17521;BME280;8878;-33.370;-70.552;2023-07-28T03:44:42;92502.69;;;10.36;68.81
17521;BME280;8878;-33.370;-70.552;2023-07-28T03:47:12;92504.78;;;10.34;68.31
17521;BME280;8878;-33.370;-70.552;2023-07-28T03:49:44;92500.00;;;10.31;68.70
17521;BME280;8878;-33.370;-70.552;2023-07-28T03:52:14;92484.91;;;11.91;63.71
17521;BME280;8878;-33.370;-70.552;2023-07-28T03:54:44;92473.47;;;12.41;61.13
17521;BME280;8878;-33.370;-70.552;2023-07-28T03:57:13;92470.78;;;12.57;59.62
17521;BME280;8878;-33.370;-70.552;2023-07-28T03:59:43;92481.50;;;10.73;64.60
17521;BME280;8878;-33.370;-70.552;2023-07-28T04:02:12;92475.59;;;10.08;66.97
17521;BME280;8878;-33.370;-70.552;2023-07-28T04:04:44;92474.84;;;9.76;68.73
17521;BME280;8878;-33.370;-70.552;2023-07-28T04:07:13;92476.88;;;9.64;69.75
17521;BME280;8878;-33.370;-70.552;2023-07-28T04:09:43;92468.16;;;9.63;69.84
17521;BME280;8878;-33.370;-70.552;2023-07-28T04:12:13;92471.19;;;9.82;69.86
17521;BME280;8878;-33.370;-70.552;2023-07-28T04:14:42;92470.25;;;9.93;68.54
17521;BME280;8878;-33.370;-70.552;2023-07-28T04:17:12;92473.13;;;9.92;68.68
17521;BME280;8878;-33.370;-70.552;2023-07-28T04:19:41;92470.19;;;9.88;68.78
17521;BME280;8878;-33.370;-70.552;2023-07-28T04:22:12;92463.88;;;9.89;67.74
17521;BME280;8878;-33.370;-70.552;2023-07-28T04:24:43;92468.66;;;9.92;66.73
17521;BME280;8878;-33.370;-70.552;2023-07-28T04:27:13;92467.59;;;9.93;66.76
17521;BME280;8878;-33.370;-70.552;2023-07-28T04:29:42;92466.09;;;10.07;66.02
17521;BME280;8878;-33.370;-70.552;2023-07-28T04:32:12;92460.41;;;10.20;66.08
17521;BME280;8878;-33.370;-70.552;2023-07-28T04:34:41;92473.25;;;10.12;67.10
17521;BME280;8878;-33.370;-70.552;2023-07-28T04:37:13;92469.75;;;10.01;67.72
17521;BME280;8878;-33.370;-70.552;2023-07-28T04:39:42;92476.56;;;9.92;68.49
17521;BME280;8878;-33.370;-70.552;2023-07-28T04:42:12;92482.31;;;9.89;68.81
17521;BME280;8878;-33.370;-70.552;2023-07-28T04:44:41;92482.84;;;9.86;68.26
17521;BME280;8878;-33.370;-70.552;2023-07-28T04:47:12;92485.50;;;9.91;68.05
17521;BME280;8878;-33.370;-70.552;2023-07-28T04:49:42;92490.28;;;9.94;67.70
17521;BME280;8878;-33.370;-70.552;2023-07-28T04:52:20;92487.38;;;9.96;69.04
17521;BME280;8878;-33.370;-70.552;2023-07-28T04:54:50;92491.59;;;9.97;68.27
17521;BME280;8878;-33.370;-70.552;2023-07-28T04:57:19;92504.56;;;10.03;68.38
17521;BME280;8878;-33.370;-70.552;2023-07-28T04:59:49;92500.09;;;10.09;67.72
17521;BME280;8878;-33.370;-70.552;2023-07-28T05:02:19;92495.09;;;10.07;67.57
17521;BME280;8878;-33.370;-70.552;2023-07-28T05:04:49;92507.88;;;10.20;68.29
17521;BME280;8878;-33.370;-70.552;2023-07-28T05:07:21;92498.63;;;10.23;68.32
17521;BME280;8878;-33.370;-70.552;2023-07-28T05:09:50;92496.16;;;10.11;69.08
17521;BME280;8878;-33.370;-70.552;2023-07-28T05:12:20;92490.09;;;10.06;69.20
17521;BME280;8878;-33.370;-70.552;2023-07-28T05:14:50;92482.19;;;10.06;69.31
17521;BME280;8878;-33.370;-70.552;2023-07-28T05:17:19;92470.75;;;9.95;69.64
17521;BME280;8878;-33.370;-70.552;2023-07-28T05:19:50;92475.38;;;9.73;67.90
17521;BME280;8878;-33.370;-70.552;2023-07-28T05:22:21;92477.19;;;9.72;66.50
17521;BME280;8878;-33.370;-70.552;2023-07-28T05:24:51;92473.91;;;9.92;65.60
17521;BME280;8878;-33.370;-70.552;2023-07-28T05:27:21;92464.50;;;10.06;64.75
17521;BME280;8878;-33.370;-70.552;2023-07-28T05:29:50;92456.66;;;10.16;64.12
17521;BME280;8878;-33.370;-70.552;2023-07-28T05:32:20;92453.63;;;10.30;63.23
17521;BME280;8878;-33.370;-70.552;2023-07-28T05:34:50;92449.47;;;10.44;62.60
17521;BME280;8878;-33.370;-70.552;2023-07-28T05:37:21;92444.75;;;10.56;61.63
17521;BME280;8878;-33.370;-70.552;2023-07-28T05:39:51;92442.13;;;10.61;62.36
17521;BME280;8878;-33.370;-70.552;2023-07-28T05:42:21;92445.97;;;10.38;62.36
17521;BME280;8878;-33.370;-70.552;2023-07-28T05:44:51;92451.00;;;10.35;62.79
17521;BME280;8878;-33.370;-70.552;2023-07-28T05:47:21;92445.16;;;10.28;63.43
17521;BME280;8878;-33.370;-70.552;2023-07-28T05:49:52;92461.13;;;10.16;63.57
17521;BME280;8878;-33.370;-70.552;2023-07-28T05:52:24;92467.28;;;10.27;64.36
17521;BME280;8878;-33.370;-70.552;2023-07-28T05:54:53;92465.81;;;10.46;63.61
17521;BME280;8878;-33.370;-70.552;2023-07-28T05:57:23;92475.88;;;10.59;64.44
17521;BME280;8878;-33.370;-70.552;2023-07-28T05:59:53;92474.28;;;10.53;64.91
17521;BME280;8878;-33.370;-70.552;2023-07-28T06:02:22;92473.53;;;10.57;65.73
17521;BME280;8878;-33.370;-70.552;2023-07-28T06:04:53;92477.28;;;10.77;65.74
17521;BME280;8878;-33.370;-70.552;2023-07-28T06:07:24;92477.84;;;10.84;65.84
17521;BME280;8878;-33.370;-70.552;2023-07-28T06:09:54;92484.69;;;10.80;66.77
17521;BME280;8878;-33.370;-70.552;2023-07-28T06:12:23;92494.41;;;10.64;67.77
17521;BME280;8878;-33.370;-70.552;2023-07-28T06:14:53;92499.03;;;10.47;68.36
17521;BME280;8878;-33.370;-70.552;2023-07-28T06:17:23;92500.63;;;10.43;68.35
17521;BME280;8878;-33.370;-70.552;2023-07-28T06:19:54;92503.03;;;10.49;68.43
17521;BME280;8878;-33.370;-70.552;2023-07-28T06:22:26;92501.44;;;10.48;68.79
17521;BME280;8878;-33.370;-70.552;2023-07-28T06:24:55;92487.44;;;10.43;69.43
17521;BME280;8878;-33.370;-70.552;2023-07-28T06:27:25;92488.97;;;10.34;70.29
17521;BME280;8878;-33.370;-70.552;2023-07-28T06:29:55;92490.41;;;10.14;69.53
17521;BME280;8878;-33.370;-70.552;2023-07-28T06:32:25;92487.88;;;9.93;68.24
17521;BME280;8878;-33.370;-70.552;2023-07-28T06:34:55;92479.06;;;9.77;66.85
17521;BME280;8878;-33.370;-70.552;2023-07-28T06:37:27;92487.22;;;9.75;66.51
17521;BME280;8878;-33.370;-70.552;2023-07-28T06:39:57;92488.66;;;9.56;66.18
17521;BME280;8878;-33.370;-70.552;2023-07-28T06:42:27;92488.34;;;9.53;65.87
17521;BME280;8878;-33.370;-70.552;2023-07-28T06:44:56;92492.63;;;9.59;65.15
17521;BME280;8878;-33.370;-70.552;2023-07-28T06:47:26;92488.66;;;9.56;64.03
17521;BME280;8878;-33.370;-70.552;2023-07-28T06:49:56;92488.44;;;9.63;63.98
17521;BME280;8878;-33.370;-70.552;2023-07-28T06:52:27;92483.66;;;9.60;63.92
17521;BME280;8878;-33.370;-70.552;2023-07-28T06:54:57;92480.75;;;9.56;64.14
17521;BME280;8878;-33.370;-70.552;2023-07-28T06:57:26;92474.47;;;9.62;63.57
17521;BME280;8878;-33.370;-70.552;2023-07-28T06:59:56;92480.88;;;9.71;64.93
17521;BME280;8878;-33.370;-70.552;2023-07-28T07:02:27;92480.88;;;9.71;65.00
17521;BME280;8878;-33.370;-70.552;2023-07-28T07:04:56;92479.06;;;9.77;64.98
17521;BME280;8878;-33.370;-70.552;2023-07-28T07:07:28;92470.19;;;9.88;64.36
17521;BME280;8878;-33.370;-70.552;2023-07-28T07:09:57;92462.31;;;9.93;64.46
17521;BME280;8878;-33.370;-70.552;2023-07-28T07:12:27;92463.63;;;9.91;66.02
17521;BME280;8878;-33.370;-70.552;2023-07-28T07:14:57;92459.63;;;9.83;66.20
17521;BME280;8878;-33.370;-70.552;2023-07-28T07:17:27;92455.34;;;9.77;66.06
17521;BME280;8878;-33.370;-70.552;2023-07-28T07:19:57;92460.75;;;9.60;65.50
17521;BME280;8878;-33.370;-70.552;2023-07-28T07:22:28;92466.19;;;9.49;65.61
17521;BME280;8878;-33.370;-70.552;2023-07-28T07:24:57;92463.59;;;9.54;65.58
17521;BME280;8878;-33.370;-70.552;2023-07-28T07:27:27;92472.09;;;9.61;65.49
17521;BME280;8878;-33.370;-70.552;2023-07-28T07:29:57;92477.56;;;9.54;64.51
17521;BME280;8878;-33.370;-70.552;2023-07-28T07:32:27;92480.31;;;9.69;64.17
17521;BME280;8878;-33.370;-70.552;2023-07-28T07:34:57;92484.91;;;9.84;64.65
17521;BME280;8878;-33.370;-70.552;2023-07-28T07:37:28;92498.59;;;9.81;65.11
17521;BME280;8878;-33.370;-70.552;2023-07-28T07:39:59;92496.84;;;9.92;65.65
17521;BME280;8878;-33.370;-70.552;2023-07-28T07:42:30;92506.69;;;10.06;65.70
17521;BME280;8878;-33.370;-70.552;2023-07-28T07:45:10;92512.38;;;10.25;65.20
17521;BME280;8878;-33.370;-70.552;2023-07-28T07:47:40;92516.44;;;10.43;64.64
17521;BME280;8878;-33.370;-70.552;2023-07-28T07:50:11;92527.59;;;10.55;62.70
17521;BME280;8878;-33.370;-70.552;2023-07-28T07:52:42;92523.44;;;10.74;62.65
17521;BME280;8878;-33.370;-70.552;2023-07-28T07:55:12;92519.78;;;10.80;63.36
17521;BME280;8878;-33.370;-70.552;2023-07-28T07:57:42;92527.91;;;10.69;65.01
17521;BME280;8878;-33.370;-70.552;2023-07-28T08:00:12;92520.38;;;10.40;67.06
17521;BME280;8878;-33.370;-70.552;2023-07-28T08:02:42;92524.75;;;10.19;67.74
17521;BME280;8878;-33.370;-70.552;2023-07-28T08:05:13;92528.81;;;10.05;68.18
17521;BME280;8878;-33.370;-70.552;2023-07-28T08:07:44;92531.94;;;9.97;67.44
17521;BME280;8878;-33.370;-70.552;2023-07-28T08:10:14;92517.00;;;9.76;64.75
17521;BME280;8878;-33.370;-70.552;2023-07-28T08:12:44;92518.56;;;9.72;64.14
17521;BME280;8878;-33.370;-70.552;2023-07-28T08:15:14;92529.09;;;9.72;63.42
17521;BME280;8878;-33.370;-70.552;2023-07-28T08:17:44;92518.97;;;9.59;63.13
17521;BME280;8878;-33.370;-70.552;2023-07-28T08:20:14;92516.78;;;9.51;63.41
17521;BME280;8878;-33.370;-70.552;2023-07-28T08:22:46;92509.75;;;9.29;63.21
17521;BME280;8878;-33.370;-70.552;2023-07-28T08:25:16;92500.00;;;9.30;63.13
17521;BME280;8878;-33.370;-70.552;2023-07-28T08:27:46;92496.91;;;9.38;63.05
17521;BME280;8878;-33.370;-70.552;2023-07-28T08:30:15;92489.56;;;9.40;62.52
17521;BME280;8878;-33.370;-70.552;2023-07-28T08:32:45;92479.13;;;9.50;61.89
17521;BME280;8878;-33.370;-70.552;2023-07-28T08:35:15;92474.03;;;9.70;59.34
17521;BME280;8878;-33.370;-70.552;2023-07-28T08:37:47;92452.84;;;9.92;57.79
17521;BME280;8878;-33.370;-70.552;2023-07-28T08:40:16;92450.78;;;10.04;57.61
17521;BME280;8878;-33.370;-70.552;2023-07-28T08:42:46;92445.03;;;10.12;57.71
17521;BME280;8878;-33.370;-70.552;2023-07-28T08:45:17;92439.44;;;9.99;58.30
17521;BME280;8878;-33.370;-70.552;2023-07-28T08:47:47;92428.81;;;9.89;58.41
17521;BME280;8878;-33.370;-70.552;2023-07-28T08:50:17;92435.44;;;9.96;58.64
17521;BME280;8878;-33.370;-70.552;2023-07-28T08:52:49;92432.81;;;9.96;59.04
17521;BME280;8878;-33.370;-70.552;2023-07-28T08:55:18;92428.78;;;9.83;59.24
17521;BME280;8878;-33.370;-70.552;2023-07-28T08:57:48;92430.56;;;9.73;60.03
17521;BME280;8878;-33.370;-70.552;2023-07-28T09:00:19;92427.16;;;9.77;59.97
17521;BME280;8878;-33.370;-70.552;2023-07-28T09:02:50;92434.31;;;9.82;58.87
17521;BME280;8878;-33.370;-70.552;2023-07-28T09:05:21;92446.91;;;9.75;58.86
17521;BME280;8878;-33.370;-70.552;2023-07-28T09:07:52;92446.97;;;9.85;58.11
17521;BME280;8878;-33.370;-70.552;2023-07-28T09:10:22;92459.28;;;10.16;58.83
17521;BME280;8878;-33.370;-70.552;2023-07-28T09:12:52;92466.38;;;10.11;58.55
17521;BME280;8878;-33.370;-70.552;2023-07-28T09:15:21;92467.91;;;10.02;58.58
17521;BME280;8878;-33.370;-70.552;2023-07-28T09:17:51;92476.31;;;10.36;57.29
17521;BME280;8878;-33.370;-70.552;2023-07-28T09:20:21;92479.00;;;10.46;57.58
17521;BME280;8878;-33.370;-70.552;2023-07-28T09:22:53;92478.50;;;10.54;58.13
17521;BME280;8878;-33.370;-70.552;2023-07-28T09:25:23;92477.44;;;10.50;58.44
17521;BME280;8878;-33.370;-70.552;2023-07-28T09:27:54;92487.03;;;10.71;58.54
17521;BME280;8878;-33.370;-70.552;2023-07-28T09:30:25;92492.03;;;10.68;58.63
17521;BME280;8878;-33.370;-70.552;2023-07-28T09:32:55;92482.28;;;10.73;60.10
17521;BME280;8878;-33.370;-70.552;2023-07-28T09:35:24;92487.00;;;10.66;60.16
17521;BME280;8878;-33.370;-70.552;2023-07-28T09:37:56;92485.13;;;10.62;61.14
17521;BME280;8878;-33.370;-70.552;2023-07-28T09:40:26;92488.56;;;10.57;60.47
17521;BME280;8878;-33.370;-70.552;2023-07-28T09:42:57;92491.94;;;10.52;62.95
17521;BME280;8878;-33.370;-70.552;2023-07-28T09:45:26;92480.97;;;10.18;63.43
17521;BME280;8878;-33.370;-70.552;2023-07-28T09:47:58;92499.50;;;9.97;64.34
17521;BME280;8878;-33.370;-70.552;2023-07-28T09:50:33;92495.03;;;9.97;62.99
17521;BME280;8878;-33.370;-70.552;2023-07-28T09:53:05;92499.50;;;9.97;61.34
17521;BME280;8878;-33.370;-70.552;2023-07-28T09:55:39;92493.41;;;9.91;60.97
17521;BME280;8878;-33.370;-70.552;2023-07-28T09:58:10;92497.59;;;9.87;60.25
17521;BME280;8878;-33.370;-70.552;2023-07-28T10:00:41;92488.03;;;9.81;59.68
17521;BME280;8878;-33.370;-70.552;2023-07-28T10:03:12;92489.41;;;9.83;59.69
17521;BME280;8878;-33.370;-70.552;2023-07-28T10:05:42;92496.53;;;9.88;59.12
17521;BME280;8878;-33.370;-70.552;2023-07-28T10:08:14;92491.38;;;10.03;58.74
17521;BME280;8878;-33.370;-70.552;2023-07-28T10:10:44;92495.91;;;10.08;57.88
17521;BME280;8878;-33.370;-70.552;2023-07-28T10:13:20;92497.22;;;10.10;57.84
17521;BME280;8878;-33.370;-70.552;2023-07-28T10:15:51;92483.53;;;10.13;58.76
17521;BME280;8878;-33.370;-70.552;2023-07-28T10:18:21;92484.34;;;10.14;60.66
17521;BME280;8878;-33.370;-70.552;2023-07-28T10:20:51;92478.16;;;9.93;60.64
17521;BME280;8878;-33.370;-70.552;2023-07-28T10:23:23;92472.88;;;9.93;61.29
17521;BME280;8878;-33.370;-70.552;2023-07-28T10:25:58;92472.28;;;9.86;61.57
17521;BME280;8878;-33.370;-70.552;2023-07-28T10:28:30;92472.25;;;9.81;61.95
17521;BME280;8878;-33.370;-70.552;2023-07-28T10:31:02;92465.97;;;9.87;61.23
17521;BME280;8878;-33.370;-70.552;2023-07-28T10:33:33;92455.91;;;9.79;61.43
17521;BME280;8878;-33.370;-70.552;2023-07-28T10:36:16;92466.22;;;9.86;60.79
17521;BME280;8878;-33.370;-70.552;2023-07-28T10:39:00;92481.34;;;10.00;59.70
17521;BME280;8878;-33.370;-70.552;2023-07-28T10:41:36;92480.34;;;10.06;60.87
17521;BME280;8878;-33.370;-70.552;2023-07-28T10:44:07;92482.41;;;9.99;59.38
17521;BME280;8878;-33.370;-70.552;2023-07-28T10:46:40;92494.44;;;9.90;58.81
17521;BME280;8878;-33.370;-70.552;2023-07-28T10:49:10;92488.59;;;9.83;59.05
17521;BME280;8878;-33.370;-70.552;2023-07-28T10:51:40;92486.88;;;9.99;58.73
17521;BME280;8878;-33.370;-70.552;2023-07-28T10:54:13;92491.66;;;10.07;59.24
17521;BME280;8878;-33.370;-70.552;2023-07-28T10:56:46;92508.72;;;9.94;60.00
17521;BME280;8878;-33.370;-70.552;2023-07-28T10:59:16;92518.50;;;9.99;59.78
17521;BME280;8878;-33.370;-70.552;2023-07-28T11:01:45;92518.16;;;9.90;61.08
17521;BME280;8878;-33.370;-70.552;2023-07-28T11:04:17;92512.03;;;9.79;61.68
17521;BME280;8878;-33.370;-70.552;2023-07-28T11:06:48;92517.34;;;9.85;60.51
17521;BME280;8878;-33.370;-70.552;2023-07-28T11:09:22;92517.69;;;9.93;59.94
17521;BME280;8878;-33.370;-70.552;2023-07-28T11:11:52;92515.63;;;10.00;60.35
17521;BME280;8878;-33.370;-70.552;2023-07-28T11:14:22;92526.66;;;9.97;61.78
17521;BME280;8878;-33.370;-70.552;2023-07-28T11:16:53;92526.28;;;9.83;61.98
17521;BME280;8878;-33.370;-70.552;2023-07-28T11:19:23;92524.88;;;9.71;61.42
17521;BME280;8878;-33.370;-70.552;2023-07-28T11:21:56;92528.75;;;9.63;60.63
17521;BME280;8878;-33.370;-70.552;2023-07-28T11:24:28;92526.22;;;9.47;60.58
17521;BME280;8878;-33.370;-70.552;2023-07-28T11:26:58;92523.69;;;9.57;60.56
17521;BME280;8878;-33.370;-70.552;2023-07-28T11:29:29;92527.66;;;9.59;58.49
17521;BME280;8878;-33.370;-70.552;2023-07-28T11:32:05;92528.19;;;9.61;58.52
17521;BME280;8878;-33.370;-70.552;2023-07-28T11:34:36;92526.50;;;9.77;57.25
17521;BME280;8878;-33.370;-70.552;2023-07-28T11:37:11;92531.00;;;9.81;56.71
17521;BME280;8878;-33.370;-70.552;2023-07-28T11:39:43;92526.09;;;9.95;56.88
17521;BME280;8878;-33.370;-70.552;2023-07-28T11:42:14;92530.97;;;10.08;56.34
17521;BME280;8878;-33.370;-70.552;2023-07-28T11:44:46;92523.38;;;10.17;57.07
17521;BME280;8878;-33.370;-70.552;2023-07-28T11:47:18;92526.28;;;10.15;57.07
17521;BME280;8878;-33.370;-70.552;2023-07-28T11:49:49;92508.56;;;10.11;56.51
17521;BME280;8878;-33.370;-70.552;2023-07-28T11:52:29;92524.13;;;10.12;56.49
17521;BME280;8878;-33.370;-70.552;2023-07-28T11:55:08;92518.91;;;10.17;56.51
17521;BME280;8878;-33.370;-70.552;2023-07-28T11:57:38;92515.53;;;10.22;57.24
17521;BME280;8878;-33.370;-70.552;2023-07-28T12:00:09;92515.25;;;10.24;57.22
17521;BME280;8878;-33.370;-70.552;2023-07-28T12:02:44;92514.19;;;10.19;57.68
17521;BME280;8878;-33.370;-70.552;2023-07-28T12:05:17;92510.28;;;10.27;56.17
17521;BME280;8878;-33.370;-70.552;2023-07-28T12:07:48;92496.94;;;10.44;54.29
17521;BME280;8878;-33.370;-70.552;2023-07-28T12:10:20;92487.75;;;10.56;52.72
17521;BME280;8878;-33.370;-70.552;2023-07-28T12:12:51;92487.28;;;10.70;52.53
17521;BME280;8878;-33.370;-70.552;2023-07-28T12:15:22;92478.34;;;10.81;52.38
17521;BME280;8878;-33.370;-70.552;2023-07-28T12:18:05;92479.72;;;10.93;52.08
17521;BME280;8878;-33.370;-70.552;2023-07-28T12:20:36;92473.91;;;10.96;51.05
17521;BME280;8878;-33.370;-70.552;2023-07-28T12:23:06;92479.44;;;10.95;52.22
17521;BME280;8878;-33.370;-70.552;2023-07-28T12:25:38;92484.19;;;10.88;52.67
17521;BME280;8878;-33.370;-70.552;2023-07-28T12:28:09;92492.88;;;10.83;53.33
17521;BME280;8878;-33.370;-70.552;2023-07-28T12:30:39;92494.25;;;10.96;53.13
17521;BME280;8878;-33.370;-70.552;2023-07-28T12:33:09;92489.25;;;11.05;52.99
17521;BME280;8878;-33.370;-70.552;2023-07-28T12:35:39;92485.63;;;11.26;52.59
17521;BME280;8878;-33.370;-70.552;2023-07-28T12:38:09;92485.66;;;11.41;52.92
17521;BME280;8878;-33.370;-70.552;2023-07-28T12:40:43;92486.19;;;11.48;53.14
17521;BME280;8878;-33.370;-70.552;2023-07-28T12:43:13;92486.44;;;11.67;51.61
17521;BME280;8878;-33.370;-70.552;2023-07-28T12:45:43;92482.81;;;11.93;50.68
17521;BME280;8878;-33.370;-70.552;2023-07-28T12:48:13;92478.53;;;12.18;49.86
17521;BME280;8878;-33.370;-70.552;2023-07-28T12:50:43;92479.81;;;12.40;50.37
17521;BME280;8878;-33.370;-70.552;2023-07-28T12:53:13;92473.16;;;12.63;51.07
17521;BME280;8878;-33.370;-70.552;2023-07-28T12:55:44;92474.94;;;12.73;53.42
17521;BME280;8878;-33.370;-70.552;2023-07-28T12:58:14;92470.75;;;12.67;51.44
17521;BME280;8878;-33.370;-70.552;2023-07-28T13:00:44;92463.03;;;12.75;49.80